sensor_id;sensor_type;location;lat;lon;timestamp;P1;durP1;ratioP1;P2;durP2;ratioP2
30096;SDS011;16915;51.466;3.610;2023-08-30T00:00:38;7.72;;;5.53;;
30096;SDS011;16915;51.466;3.610;2023-08-30T00:03:04;6.47;;;5.28;;
30096;SDS011;16915;51.466;3.610;2023-08-30T00:05:31;8.63;;;5.60;;
30096;SDS011;16915;51.466;3.610;2023-08-30T00:07:56;6.63;;;5.75;;
30096;SDS011;16915;51.466;3.610;2023-08-30T00:10:22;8.50;;;6.00;;
30096;SDS011;16915;51.466;3.610;2023-08-30T00:12:48;9.10;;;5.88;;
30096;SDS011;16915;51.466;3.610;2023-08-30T00:15:14;9.25;;;5.88;;
30096;SDS011;16915;51.466;3.610;2023-08-30T00:17:39;8.85;;;5.90;;
30096;SDS011;16915;51.466;3.610;2023-08-30T00:20:05;10.68;;;6.78;;
30096;SDS011;16915;51.466;3.610;2023-08-30T00:22:32;10.82;;;6.13;;
30096;SDS011;16915;51.466;3.610;2023-08-30T00:24:58;8.55;;;6.28;;
30096;SDS011;16915;51.466;3.610;2023-08-30T00:27:25;8.88;;;6.03;;
30096;SDS011;16915;51.466;3.610;2023-08-30T00:29:50;8.20;;;7.00;;
30096;SDS011;16915;51.466;3.610;2023-08-30T00:32:16;11.18;;;6.53;;
30096;SDS011;16915;51.466;3.610;2023-08-30T00:34:41;7.63;;;6.10;;
30096;SDS011;16915;51.466;3.610;2023-08-30T00:37:07;11.40;;;7.07;;
30096;SDS011;16915;51.466;3.610;2023-08-30T00:39:33;8.85;;;6.38;;
30096;SDS011;16915;51.466;3.610;2023-08-30T00:42:02;8.88;;;6.70;;
30096;SDS011;16915;51.466;3.610;2023-08-30T00:44:30;8.93;;;6.78;;
30096;SDS011;16915;51.466;3.610;2023-08-30T00:46:57;8.98;;;6.40;;
30096;SDS011;16915;51.466;3.610;2023-08-30T00:49:23;11.02;;;6.82;;
30096;SDS011;16915;51.466;3.610;2023-08-30T00:51:49;10.45;;;6.85;;
30096;SDS011;16915;51.466;3.610;2023-08-30T00:54:15;9.40;;;6.80;;
30096;SDS011;16915;51.466;3.610;2023-08-30T00:56:41;13.95;;;7.20;;
30096;SDS011;16915;51.466;3.610;2023-08-30T00:59:07;9.68;;;6.05;;
30096;SDS011;16915;51.466;3.610;2023-08-30T01:01:33;9.32;;;6.18;;
30096;SDS011;16915;51.466;3.610;2023-08-30T01:03:58;8.88;;;6.68;;
30096;SDS011;16915;51.466;3.610;2023-08-30T01:06:25;7.68;;;5.93;;
30096;SDS011;16915;51.466;3.610;2023-08-30T01:08:51;7.05;;;6.15;;
30096;SDS011;16915;51.466;3.610;2023-08-30T01:14:08;10.18;;;6.25;;
30096;SDS011;16915;51.466;3.610;2023-08-30T01:16:37;11.48;;;6.20;;
30096;SDS011;16915;51.466;3.610;2023-08-30T01:22:23;9.65;;;5.55;;
30096;SDS011;16915;51.466;3.610;2023-08-30T01:27:47;6.53;;;5.47;;
30096;SDS011;16915;51.466;3.610;2023-08-30T01:30:15;6.63;;;5.57;;
30096;SDS011;16915;51.466;3.610;2023-08-30T01:32:42;7.15;;;5.57;;
30096;SDS011;16915;51.466;3.610;2023-08-30T01:35:09;7.00;;;5.88;;
30096;SDS011;16915;51.466;3.610;2023-08-30T01:37:35;8.57;;;6.00;;
30096;SDS011;16915;51.466;3.610;2023-08-30T01:40:02;7.50;;;5.72;;
30096;SDS011;16915;51.466;3.610;2023-08-30T01:42:30;7.60;;;6.20;;
30096;SDS011;16915;51.466;3.610;2023-08-30T01:44:56;8.30;;;5.70;;
30096;SDS011;16915;51.466;3.610;2023-08-30T01:47:26;5.97;;;5.38;;
30096;SDS011;16915;51.466;3.610;2023-08-30T01:49:53;7.22;;;5.38;;
30096;SDS011;16915;51.466;3.610;2023-08-30T01:52:20;6.13;;;5.47;;
30096;SDS011;16915;51.466;3.610;2023-08-30T01:54:47;5.95;;;5.35;;
30096;SDS011;16915;51.466;3.610;2023-08-30T01:57:13;7.35;;;5.22;;
30096;SDS011;16915;51.466;3.610;2023-08-30T01:59:39;8.63;;;5.78;;
30096;SDS011;16915;51.466;3.610;2023-08-30T02:02:04;6.72;;;5.00;;
30096;SDS011;16915;51.466;3.610;2023-08-30T02:04:30;8.48;;;4.90;;
30096;SDS011;16915;51.466;3.610;2023-08-30T02:07:05;6.15;;;5.38;;
30096;SDS011;16915;51.466;3.610;2023-08-30T02:12:13;6.20;;;5.22;;
30096;SDS011;16915;51.466;3.610;2023-08-30T02:14:42;8.32;;;5.32;;
30096;SDS011;16915;51.466;3.610;2023-08-30T02:17:16;9.18;;;5.95;;
30096;SDS011;16915;51.466;3.610;2023-08-30T02:19:43;8.13;;;5.20;;
30096;SDS011;16915;51.466;3.610;2023-08-30T02:22:09;8.65;;;4.82;;
30096;SDS011;16915;51.466;3.610;2023-08-30T02:24:35;6.38;;;5.28;;
30096;SDS011;16915;51.466;3.610;2023-08-30T02:27:01;6.38;;;4.80;;
30096;SDS011;16915;51.466;3.610;2023-08-30T02:29:27;8.73;;;5.43;;
30096;SDS011;16915;51.466;3.610;2023-08-30T02:31:52;6.72;;;4.85;;
30096;SDS011;16915;51.466;3.610;2023-08-30T02:34:18;6.50;;;5.00;;
30096;SDS011;16915;51.466;3.610;2023-08-30T02:36:44;6.63;;;5.57;;
30096;SDS011;16915;51.466;3.610;2023-08-30T02:39:09;7.57;;;5.40;;
30096;SDS011;16915;51.466;3.610;2023-08-30T02:41:36;8.75;;;6.15;;
30096;SDS011;16915;51.466;3.610;2023-08-30T02:44:02;5.97;;;5.40;;
30096;SDS011;16915;51.466;3.610;2023-08-30T02:46:28;8.93;;;5.47;;
30096;SDS011;16915;51.466;3.610;2023-08-30T02:48:53;6.82;;;5.95;;
30096;SDS011;16915;51.466;3.610;2023-08-30T02:51:20;9.65;;;6.80;;
30096;SDS011;16915;51.466;3.610;2023-08-30T02:53:45;12.07;;;7.18;;
30096;SDS011;16915;51.466;3.610;2023-08-30T02:56:11;9.73;;;6.85;;
30096;SDS011;16915;51.466;3.610;2023-08-30T02:58:37;11.50;;;7.35;;
30096;SDS011;16915;51.466;3.610;2023-08-30T03:01:02;9.77;;;7.72;;
30096;SDS011;16915;51.466;3.610;2023-08-30T03:03:28;12.15;;;6.05;;
30096;SDS011;16915;51.466;3.610;2023-08-30T03:05:53;9.88;;;6.47;;
30096;SDS011;16915;51.466;3.610;2023-08-30T03:08:19;10.95;;;6.47;;
30096;SDS011;16915;51.466;3.610;2023-08-30T03:10:45;7.55;;;6.38;;
30096;SDS011;16915;51.466;3.610;2023-08-30T03:13:10;7.82;;;5.82;;
30096;SDS011;16915;51.466;3.610;2023-08-30T03:15:36;12.35;;;5.47;;
30096;SDS011;16915;51.466;3.610;2023-08-30T03:18:01;7.18;;;5.53;;
30096;SDS011;16915;51.466;3.610;2023-08-30T03:20:27;7.00;;;5.28;;
30096;SDS011;16915;51.466;3.610;2023-08-30T03:22:56;7.72;;;5.13;;
30096;SDS011;16915;51.466;3.610;2023-08-30T03:25:23;5.88;;;5.03;;
30096;SDS011;16915;51.466;3.610;2023-08-30T03:27:48;11.50;;;5.28;;
30096;SDS011;16915;51.466;3.610;2023-08-30T03:30:14;5.93;;;5.18;;
30096;SDS011;16915;51.466;3.610;2023-08-30T03:32:40;8.32;;;5.72;;
30096;SDS011;16915;51.466;3.610;2023-08-30T03:35:05;7.25;;;5.10;;
30096;SDS011;16915;51.466;3.610;2023-08-30T03:37:31;7.72;;;4.95;;
30096;SDS011;16915;51.466;3.610;2023-08-30T03:39:57;5.90;;;5.05;;
30096;SDS011;16915;51.466;3.610;2023-08-30T03:42:23;4.45;;;4.05;;
30096;SDS011;16915;51.466;3.610;2023-08-30T03:44:48;5.53;;;4.43;;
30096;SDS011;16915;51.466;3.610;2023-08-30T03:47:14;4.55;;;3.95;;
30096;SDS011;16915;51.466;3.610;2023-08-30T03:49:39;4.63;;;4.00;;
30096;SDS011;16915;51.466;3.610;2023-08-30T03:52:05;5.82;;;4.00;;
30096;SDS011;16915;51.466;3.610;2023-08-30T03:54:31;6.32;;;4.03;;
30096;SDS011;16915;51.466;3.610;2023-08-30T03:56:57;4.72;;;4.28;;
30096;SDS011;16915;51.466;3.610;2023-08-30T03:59:22;6.30;;;5.18;;
30096;SDS011;16915;51.466;3.610;2023-08-30T04:01:50;8.57;;;5.63;;
30096;SDS011;16915;51.466;3.610;2023-08-30T04:04:16;8.82;;;5.35;;
30096;SDS011;16915;51.466;3.610;2023-08-30T04:06:41;5.47;;;4.82;;
30096;SDS011;16915;51.466;3.610;2023-08-30T04:09:07;7.80;;;5.82;;
30096;SDS011;16915;51.466;3.610;2023-08-30T04:11:33;8.02;;;5.78;;
30096;SDS011;16915;51.466;3.610;2023-08-30T04:13:59;11.73;;;6.25;;
30096;SDS011;16915;51.466;3.610;2023-08-30T04:16:24;11.25;;;6.18;;
30096;SDS011;16915;51.466;3.610;2023-08-30T04:18:50;8.00;;;5.93;;
30096;SDS011;16915;51.466;3.610;2023-08-30T04:21:15;6.68;;;5.55;;
30096;SDS011;16915;51.466;3.610;2023-08-30T04:23:41;8.07;;;5.70;;
30096;SDS011;16915;51.466;3.610;2023-08-30T04:26:06;6.43;;;5.82;;
30096;SDS011;16915;51.466;3.610;2023-08-30T04:28:32;9.23;;;6.13;;
30096;SDS011;16915;51.466;3.610;2023-08-30T04:30:57;8.90;;;6.53;;
30096;SDS011;16915;51.466;3.610;2023-08-30T04:33:23;10.02;;;6.25;;
30096;SDS011;16915;51.466;3.610;2023-08-30T04:35:50;10.00;;;6.30;;
30096;SDS011;16915;51.466;3.610;2023-08-30T04:38:17;8.43;;;6.10;;
30096;SDS011;16915;51.466;3.610;2023-08-30T04:40:42;8.35;;;6.93;;
30096;SDS011;16915;51.466;3.610;2023-08-30T04:43:08;10.55;;;6.88;;
30096;SDS011;16915;51.466;3.610;2023-08-30T04:45:34;12.07;;;7.00;;
30096;SDS011;16915;51.466;3.610;2023-08-30T04:48:00;9.85;;;7.13;;
30096;SDS011;16915;51.466;3.610;2023-08-30T04:50:25;15.07;;;7.10;;
30096;SDS011;16915;51.466;3.610;2023-08-30T04:52:51;8.07;;;6.60;;
30096;SDS011;16915;51.466;3.610;2023-08-30T04:55:17;10.70;;;6.35;;
30096;SDS011;16915;51.466;3.610;2023-08-30T04:57:43;9.88;;;7.18;;
30096;SDS011;16915;51.466;3.610;2023-08-30T05:00:10;9.35;;;6.30;;
30096;SDS011;16915;51.466;3.610;2023-08-30T05:02:37;10.10;;;6.65;;
30096;SDS011;16915;51.466;3.610;2023-08-30T05:05:03;9.52;;;7.20;;
30096;SDS011;16915;51.466;3.610;2023-08-30T05:07:28;12.75;;;7.90;;
30096;SDS011;16915;51.466;3.610;2023-08-30T05:09:54;10.27;;;7.65;;
30096;SDS011;16915;51.466;3.610;2023-08-30T05:12:20;11.60;;;8.20;;
30096;SDS011;16915;51.466;3.610;2023-08-30T05:14:45;12.75;;;8.30;;
30096;SDS011;16915;51.466;3.610;2023-08-30T05:17:11;11.63;;;8.35;;
30096;SDS011;16915;51.466;3.610;2023-08-30T05:19:37;14.98;;;8.50;;
30096;SDS011;16915;51.466;3.610;2023-08-30T05:22:02;12.90;;;8.32;;
30096;SDS011;16915;51.466;3.610;2023-08-30T05:24:28;11.90;;;8.25;;
30096;SDS011;16915;51.466;3.610;2023-08-30T05:26:54;9.82;;;8.35;;
30096;SDS011;16915;51.466;3.610;2023-08-30T05:29:20;11.73;;;7.70;;
30096;SDS011;16915;51.466;3.610;2023-08-30T05:31:45;11.48;;;9.00;;
30096;SDS011;16915;51.466;3.610;2023-08-30T05:34:11;11.32;;;8.27;;
30096;SDS011;16915;51.466;3.610;2023-08-30T05:36:36;12.85;;;8.52;;
30096;SDS011;16915;51.466;3.610;2023-08-30T05:39:02;13.35;;;9.60;;
30096;SDS011;16915;51.466;3.610;2023-08-30T05:41:28;13.70;;;9.68;;
30096;SDS011;16915;51.466;3.610;2023-08-30T05:43:55;12.95;;;9.55;;
30096;SDS011;16915;51.466;3.610;2023-08-30T05:46:21;15.88;;;9.60;;
30096;SDS011;16915;51.466;3.610;2023-08-30T05:48:46;15.85;;;10.38;;
30096;SDS011;16915;51.466;3.610;2023-08-30T05:51:12;13.90;;;9.88;;
30096;SDS011;16915;51.466;3.610;2023-08-30T05:53:37;15.13;;;10.10;;
30096;SDS011;16915;51.466;3.610;2023-08-30T05:56:03;14.38;;;10.13;;
30096;SDS011;16915;51.466;3.610;2023-08-30T05:58:29;15.18;;;9.98;;
30096;SDS011;16915;51.466;3.610;2023-08-30T06:00:55;14.50;;;9.52;;
30096;SDS011;16915;51.466;3.610;2023-08-30T06:03:21;16.98;;;10.43;;
30096;SDS011;16915;51.466;3.610;2023-08-30T06:05:47;17.40;;;10.57;;
30096;SDS011;16915;51.466;3.610;2023-08-30T06:08:13;17.60;;;11.00;;
30096;SDS011;16915;51.466;3.610;2023-08-30T06:10:39;16.10;;;10.55;;
30096;SDS011;16915;51.466;3.610;2023-08-30T06:13:05;14.60;;;9.77;;
30096;SDS011;16915;51.466;3.610;2023-08-30T06:15:31;14.38;;;9.52;;
30096;SDS011;16915;51.466;3.610;2023-08-30T06:17:56;7.32;;;4.95;;
30096;SDS011;16915;51.466;3.610;2023-08-30T06:20:23;7.30;;;4.38;;
30096;SDS011;16915;51.466;3.610;2023-08-30T06:22:49;3.40;;;3.10;;
30096;SDS011;16915;51.466;3.610;2023-08-30T06:25:14;8.15;;;3.58;;
30096;SDS011;16915;51.466;3.610;2023-08-30T06:27:54;3.67;;;3.25;;
30096;SDS011;16915;51.466;3.610;2023-08-30T06:30:24;9.80;;;3.47;;
30096;SDS011;16915;51.466;3.610;2023-08-30T06:32:50;5.07;;;3.42;;
30096;SDS011;16915;51.466;3.610;2023-08-30T06:35:16;3.67;;;3.10;;
30096;SDS011;16915;51.466;3.610;2023-08-30T06:37:42;4.97;;;2.42;;
30096;SDS011;16915;51.466;3.610;2023-08-30T06:40:07;3.70;;;1.88;;
30096;SDS011;16915;51.466;3.610;2023-08-30T06:42:33;2.70;;;2.00;;
30096;SDS011;16915;51.466;3.610;2023-08-30T06:44:59;4.80;;;1.77;;
30096;SDS011;16915;51.466;3.610;2023-08-30T06:47:25;2.35;;;1.80;;
30096;SDS011;16915;51.466;3.610;2023-08-30T06:49:51;2.70;;;1.83;;
30096;SDS011;16915;51.466;3.610;2023-08-30T06:52:16;1.88;;;1.50;;
30096;SDS011;16915;51.466;3.610;2023-08-30T06:54:42;3.88;;;2.10;;
30096;SDS011;16915;51.466;3.610;2023-08-30T06:57:07;3.08;;;1.98;;
30096;SDS011;16915;51.466;3.610;2023-08-30T06:59:34;4.45;;;1.60;;
30096;SDS011;16915;51.466;3.610;2023-08-30T07:01:59;1.70;;;1.48;;
30096;SDS011;16915;51.466;3.610;2023-08-30T07:04:25;3.58;;;1.25;;
30096;SDS011;16915;51.466;3.610;2023-08-30T07:06:51;3.20;;;2.00;;
30096;SDS011;16915;51.466;3.610;2023-08-30T07:09:16;5.07;;;2.40;;
30096;SDS011;16915;51.466;3.610;2023-08-30T07:11:42;3.42;;;2.08;;
30096;SDS011;16915;51.466;3.610;2023-08-30T07:14:12;5.35;;;2.10;;
30096;SDS011;16915;51.466;3.610;2023-08-30T07:16:39;4.25;;;1.98;;
30096;SDS011;16915;51.466;3.610;2023-08-30T07:19:04;6.43;;;1.70;;
30096;SDS011;16915;51.466;3.610;2023-08-30T07:21:30;4.35;;;1.58;;
30096;SDS011;16915;51.466;3.610;2023-08-30T07:23:56;2.65;;;1.73;;
30096;SDS011;16915;51.466;3.610;2023-08-30T07:26:21;2.92;;;1.65;;
30096;SDS011;16915;51.466;3.610;2023-08-30T07:28:47;2.13;;;1.63;;
30096;SDS011;16915;51.466;3.610;2023-08-30T07:31:13;4.03;;;1.60;;
30096;SDS011;16915;51.466;3.610;2023-08-30T07:33:40;4.63;;;1.50;;
30096;SDS011;16915;51.466;3.610;2023-08-30T07:36:06;3.20;;;1.52;;
30096;SDS011;16915;51.466;3.610;2023-08-30T07:38:33;2.55;;;1.83;;
30096;SDS011;16915;51.466;3.610;2023-08-30T07:40:59;2.95;;;1.70;;
30096;SDS011;16915;51.466;3.610;2023-08-30T07:43:25;3.15;;;1.90;;
30096;SDS011;16915;51.466;3.610;2023-08-30T07:45:51;3.35;;;1.73;;
30096;SDS011;16915;51.466;3.610;2023-08-30T07:48:16;1.90;;;1.73;;
30096;SDS011;16915;51.466;3.610;2023-08-30T07:50:42;2.85;;;1.88;;
30096;SDS011;16915;51.466;3.610;2023-08-30T07:53:08;5.72;;;1.60;;
30096;SDS011;16915;51.466;3.610;2023-08-30T07:55:35;4.03;;;1.60;;
30096;SDS011;16915;51.466;3.610;2023-08-30T07:58:01;2.95;;;1.90;;
30096;SDS011;16915;51.466;3.610;2023-08-30T08:00:28;4.43;;;1.70;;
30096;SDS011;16915;51.466;3.610;2023-08-30T08:02:53;3.63;;;1.70;;
30096;SDS011;16915;51.466;3.610;2023-08-30T08:05:19;5.00;;;1.75;;
30096;SDS011;16915;51.466;3.610;2023-08-30T08:07:45;3.10;;;1.58;;
30096;SDS011;16915;51.466;3.610;2023-08-30T08:10:11;3.35;;;1.55;;
30096;SDS011;16915;51.466;3.610;2023-08-30T08:12:36;2.45;;;1.73;;
30096;SDS011;16915;51.466;3.610;2023-08-30T08:15:02;4.63;;;1.50;;
30096;SDS011;16915;51.466;3.610;2023-08-30T08:17:28;2.03;;;1.63;;
30096;SDS011;16915;51.466;3.610;2023-08-30T08:19:54;4.60;;;1.90;;
30096;SDS011;16915;51.466;3.610;2023-08-30T08:22:20;2.55;;;1.10;;
30096;SDS011;16915;51.466;3.610;2023-08-30T08:24:45;6.50;;;1.83;;
30096;SDS011;16915;51.466;3.610;2023-08-30T08:27:11;4.53;;;1.50;;
30096;SDS011;16915;51.466;3.610;2023-08-30T08:29:37;5.80;;;1.77;;
30096;SDS011;16915;51.466;3.610;2023-08-30T08:32:03;7.88;;;2.05;;
30096;SDS011;16915;51.466;3.610;2023-08-30T08:34:29;3.05;;;1.60;;
30096;SDS011;16915;51.466;3.610;2023-08-30T08:36:54;7.45;;;2.33;;
30096;SDS011;16915;51.466;3.610;2023-08-30T08:39:20;6.60;;;2.35;;
30096;SDS011;16915;51.466;3.610;2023-08-30T08:41:46;4.10;;;1.70;;
30096;SDS011;16915;51.466;3.610;2023-08-30T08:44:12;3.67;;;1.52;;
30096;SDS011;16915;51.466;3.610;2023-08-30T08:46:38;6.57;;;1.90;;
30096;SDS011;16915;51.466;3.610;2023-08-30T08:49:08;4.13;;;1.23;;
30096;SDS011;16915;51.466;3.610;2023-08-30T08:51:35;3.72;;;1.35;;
30096;SDS011;16915;51.466;3.610;2023-08-30T08:54:02;11.27;;;1.77;;
30096;SDS011;16915;51.466;3.610;2023-08-30T08:56:32;3.30;;;1.30;;
30096;SDS011;16915;51.466;3.610;2023-08-30T08:58:59;3.58;;;1.30;;
30096;SDS011;16915;51.466;3.610;2023-08-30T09:01:24;6.28;;;1.60;;
30096;SDS011;16915;51.466;3.610;2023-08-30T09:03:50;7.35;;;1.67;;
30096;SDS011;16915;51.466;3.610;2023-08-30T09:06:17;2.78;;;1.40;;
30096;SDS011;16915;51.466;3.610;2023-08-30T09:08:43;4.50;;;1.55;;
30096;SDS011;16915;51.466;3.610;2023-08-30T09:11:08;6.45;;;1.30;;
30096;SDS011;16915;51.466;3.610;2023-08-30T09:13:34;8.73;;;1.30;;
30096;SDS011;16915;51.466;3.610;2023-08-30T09:16:00;8.25;;;1.48;;
30096;SDS011;16915;51.466;3.610;2023-08-30T09:18:27;5.40;;;1.25;;
30096;SDS011;16915;51.466;3.610;2023-08-30T09:21:04;7.55;;;1.80;;
30096;SDS011;16915;51.466;3.610;2023-08-30T09:23:33;6.20;;;1.33;;
30096;SDS011;16915;51.466;3.610;2023-08-30T09:25:59;6.50;;;1.58;;
30096;SDS011;16915;51.466;3.610;2023-08-30T09:28:25;8.18;;;1.23;;
30096;SDS011;16915;51.466;3.610;2023-08-30T09:30:52;4.82;;;1.60;;
30096;SDS011;16915;51.466;3.610;2023-08-30T09:33:21;6.40;;;1.65;;
30096;SDS011;16915;51.466;3.610;2023-08-30T09:35:47;3.90;;;1.17;;
30096;SDS011;16915;51.466;3.610;2023-08-30T09:38:20;7.38;;;1.65;;
30096;SDS011;16915;51.466;3.610;2023-08-30T09:40:46;7.22;;;1.58;;
30096;SDS011;16915;51.466;3.610;2023-08-30T09:43:12;3.70;;;1.52;;
30096;SDS011;16915;51.466;3.610;2023-08-30T09:45:39;6.85;;;1.30;;
30096;SDS011;16915;51.466;3.610;2023-08-30T09:48:06;4.18;;;1.15;;
30096;SDS011;16915;51.466;3.610;2023-08-30T09:50:35;4.18;;;1.50;;
30096;SDS011;16915;51.466;3.610;2023-08-30T09:53:08;4.15;;;1.20;;
30096;SDS011;16915;51.466;3.610;2023-08-30T09:55:37;6.07;;;1.88;;
30096;SDS011;16915;51.466;3.610;2023-08-30T09:58:04;6.32;;;1.33;;
30096;SDS011;16915;51.466;3.610;2023-08-30T10:00:30;6.80;;;1.27;;
30096;SDS011;16915;51.466;3.610;2023-08-30T10:02:58;5.90;;;1.45;;
30096;SDS011;16915;51.466;3.610;2023-08-30T10:05:25;6.28;;;2.38;;
30096;SDS011;16915;51.466;3.610;2023-08-30T10:07:52;9.18;;;2.10;;
30096;SDS011;16915;51.466;3.610;2023-08-30T10:10:21;3.92;;;1.25;;
30096;SDS011;16915;51.466;3.610;2023-08-30T10:12:48;7.35;;;1.70;;
30096;SDS011;16915;51.466;3.610;2023-08-30T10:15:15;5.88;;;1.80;;
30096;SDS011;16915;51.466;3.610;2023-08-30T10:17:41;7.35;;;1.80;;
30096;SDS011;16915;51.466;3.610;2023-08-30T10:20:11;8.55;;;1.80;;
30096;SDS011;16915;51.466;3.610;2023-08-30T10:22:39;5.03;;;1.90;;
30096;SDS011;16915;51.466;3.610;2023-08-30T10:25:07;5.97;;;1.58;;
30096;SDS011;16915;51.466;3.610;2023-08-30T10:27:43;6.68;;;1.67;;
30096;SDS011;16915;51.466;3.610;2023-08-30T10:32:41;7.63;;;1.30;;
30096;SDS011;16915;51.466;3.610;2023-08-30T10:35:11;5.90;;;1.30;;
30096;SDS011;16915;51.466;3.610;2023-08-30T10:37:38;5.43;;;1.35;;
30096;SDS011;16915;51.466;3.610;2023-08-30T10:40:04;6.18;;;1.60;;
30096;SDS011;16915;51.466;3.610;2023-08-30T10:42:34;5.90;;;1.30;;
30096;SDS011;16915;51.466;3.610;2023-08-30T10:45:01;7.50;;;1.63;;
30096;SDS011;16915;51.466;3.610;2023-08-30T10:47:30;5.57;;;1.17;;
30096;SDS011;16915;51.466;3.610;2023-08-30T10:49:57;6.18;;;1.05;;
30096;SDS011;16915;51.466;3.610;2023-08-30T10:52:25;6.00;;;1.10;;
30096;SDS011;16915;51.466;3.610;2023-08-30T10:54:51;3.88;;;1.35;;
30096;SDS011;16915;51.466;3.610;2023-08-30T10:57:21;2.65;;;1.33;;
30096;SDS011;16915;51.466;3.610;2023-08-30T11:00:09;5.90;;;1.30;;
30096;SDS011;16915;51.466;3.610;2023-08-30T11:02:45;5.60;;;1.20;;
30096;SDS011;16915;51.466;3.610;2023-08-30T11:05:14;4.75;;;1.27;;
30096;SDS011;16915;51.466;3.610;2023-08-30T11:07:41;3.88;;;1.10;;
30096;SDS011;16915;51.466;3.610;2023-08-30T11:10:11;4.35;;;1.40;;
30096;SDS011;16915;51.466;3.610;2023-08-30T11:12:40;6.40;;;1.20;;
30096;SDS011;16915;51.466;3.610;2023-08-30T11:15:07;7.10;;;1.13;;
30096;SDS011;16915;51.466;3.610;2023-08-30T11:17:34;6.10;;;1.58;;
30096;SDS011;16915;51.466;3.610;2023-08-30T11:20:10;3.55;;;0.93;;
30096;SDS011;16915;51.466;3.610;2023-08-30T11:22:42;3.97;;;0.75;;
30096;SDS011;16915;51.466;3.610;2023-08-30T11:25:09;5.25;;;1.35;;
30096;SDS011;16915;51.466;3.610;2023-08-30T11:27:35;5.50;;;1.73;;
30096;SDS011;16915;51.466;3.610;2023-08-30T11:30:02;5.07;;;1.45;;
30096;SDS011;16915;51.466;3.610;2023-08-30T11:32:37;3.05;;;1.20;;
30096;SDS011;16915;51.466;3.610;2023-08-30T11:35:09;3.72;;;1.20;;
30096;SDS011;16915;51.466;3.610;2023-08-30T11:37:35;5.00;;;1.02;;
30096;SDS011;16915;51.466;3.610;2023-08-30T11:40:03;5.90;;;1.50;;
30096;SDS011;16915;51.466;3.610;2023-08-30T11:42:31;3.10;;;0.75;;
30096;SDS011;16915;51.466;3.610;2023-08-30T11:44:57;2.97;;;1.10;;
30096;SDS011;16915;51.466;3.610;2023-08-30T11:47:32;3.33;;;0.80;;
30096;SDS011;16915;51.466;3.610;2023-08-30T11:49:59;7.75;;;1.20;;
30096;SDS011;16915;51.466;3.610;2023-08-30T11:52:25;5.93;;;0.98;;
30096;SDS011;16915;51.466;3.610;2023-08-30T11:54:52;3.38;;;0.98;;
30096;SDS011;16915;51.466;3.610;2023-08-30T11:57:19;4.13;;;0.85;;
30096;SDS011;16915;51.466;3.610;2023-08-30T11:59:46;1.65;;;1.00;;
30096;SDS011;16915;51.466;3.610;2023-08-30T12:02:13;3.90;;;0.93;;
30096;SDS011;16915;51.466;3.610;2023-08-30T12:04:42;2.95;;;1.17;;
30096;SDS011;16915;51.466;3.610;2023-08-30T12:09:45;2.17;;;1.00;;
30096;SDS011;16915;51.466;3.610;2023-08-30T12:12:11;4.03;;;1.10;;
30096;SDS011;16915;51.466;3.610;2023-08-30T12:14:37;2.58;;;0.73;;
30096;SDS011;16915;51.466;3.610;2023-08-30T12:17:03;5.95;;;1.23;;
30096;SDS011;16915;51.466;3.610;2023-08-30T12:19:29;2.63;;;0.68;;
30096;SDS011;16915;51.466;3.610;2023-08-30T12:21:56;1.88;;;0.73;;
30096;SDS011;16915;51.466;3.610;2023-08-30T12:24:39;2.90;;;0.90;;
30096;SDS011;16915;51.466;3.610;2023-08-30T12:27:08;1.73;;;0.73;;
30096;SDS011;16915;51.466;3.610;2023-08-30T12:29:34;3.08;;;0.88;;
30096;SDS011;16915;51.466;3.610;2023-08-30T12:31:59;2.78;;;0.80;;
30096;SDS011;16915;51.466;3.610;2023-08-30T12:34:25;2.00;;;0.85;;
30096;SDS011;16915;51.466;3.610;2023-08-30T12:36:50;2.85;;;0.85;;
30096;SDS011;16915;51.466;3.610;2023-08-30T12:39:16;4.00;;;0.93;;
30096;SDS011;16915;51.466;3.610;2023-08-30T12:41:42;3.38;;;0.63;;
30096;SDS011;16915;51.466;3.610;2023-08-30T12:44:07;1.27;;;0.70;;
30096;SDS011;16915;51.466;3.610;2023-08-30T12:46:33;3.45;;;0.80;;
30096;SDS011;16915;51.466;3.610;2023-08-30T12:48:59;2.25;;;0.80;;
30096;SDS011;16915;51.466;3.610;2023-08-30T12:51:24;6.22;;;1.13;;
30096;SDS011;16915;51.466;3.610;2023-08-30T12:53:50;1.75;;;0.73;;
30096;SDS011;16915;51.466;3.610;2023-08-30T12:56:15;2.80;;;0.82;;
30096;SDS011;16915;51.466;3.610;2023-08-30T12:58:41;1.65;;;0.70;;
30096;SDS011;16915;51.466;3.610;2023-08-30T13:01:07;3.03;;;0.60;;
30096;SDS011;16915;51.466;3.610;2023-08-30T13:03:32;3.38;;;0.80;;
30096;SDS011;16915;51.466;3.610;2023-08-30T13:05:58;4.10;;;0.73;;
30096;SDS011;16915;51.466;3.610;2023-08-30T13:08:23;1.33;;;0.70;;
30096;SDS011;16915;51.466;3.610;2023-08-30T13:10:49;1.55;;;0.82;;
30096;SDS011;16915;51.466;3.610;2023-08-30T13:13:15;2.80;;;1.05;;
30096;SDS011;16915;51.466;3.610;2023-08-30T13:15:40;4.90;;;1.10;;
30096;SDS011;16915;51.466;3.610;2023-08-30T13:18:06;1.60;;;0.82;;
30096;SDS011;16915;51.466;3.610;2023-08-30T13:20:31;3.33;;;0.75;;
30096;SDS011;16915;51.466;3.610;2023-08-30T13:22:57;4.15;;;0.90;;
30096;SDS011;16915;51.466;3.610;2023-08-30T13:25:23;2.75;;;0.70;;
30096;SDS011;16915;51.466;3.610;2023-08-30T13:27:48;2.72;;;0.75;;
30096;SDS011;16915;51.466;3.610;2023-08-30T13:30:14;4.10;;;1.00;;
30096;SDS011;16915;51.466;3.610;2023-08-30T13:32:39;3.67;;;0.80;;
30096;SDS011;16915;51.466;3.610;2023-08-30T13:35:05;3.03;;;0.90;;
30096;SDS011;16915;51.466;3.610;2023-08-30T13:37:31;1.95;;;0.73;;
30096;SDS011;16915;51.466;3.610;2023-08-30T13:39:56;3.03;;;0.70;;
30096;SDS011;16915;51.466;3.610;2023-08-30T13:42:22;3.55;;;0.90;;
30096;SDS011;16915;51.466;3.610;2023-08-30T13:44:50;4.10;;;0.77;;
30096;SDS011;16915;51.466;3.610;2023-08-30T13:47:16;2.15;;;0.80;;
30096;SDS011;16915;51.466;3.610;2023-08-30T13:49:41;4.80;;;1.10;;
30096;SDS011;16915;51.466;3.610;2023-08-30T13:52:07;2.10;;;0.60;;
30096;SDS011;16915;51.466;3.610;2023-08-30T13:54:33;5.65;;;0.77;;
30096;SDS011;16915;51.466;3.610;2023-08-30T13:56:58;2.95;;;0.82;;
30096;SDS011;16915;51.466;3.610;2023-08-30T13:59:24;1.88;;;0.50;;
30096;SDS011;16915;51.466;3.610;2023-08-30T14:01:49;2.58;;;0.70;;
30096;SDS011;16915;51.466;3.610;2023-08-30T14:04:15;2.22;;;0.50;;
30096;SDS011;16915;51.466;3.610;2023-08-30T14:06:41;1.55;;;0.60;;
30096;SDS011;16915;51.466;3.610;2023-08-30T14:09:06;2.53;;;0.55;;
30096;SDS011;16915;51.466;3.610;2023-08-30T14:11:33;2.53;;;0.70;;
30096;SDS011;16915;51.466;3.610;2023-08-30T14:14:00;2.67;;;0.73;;
30096;SDS011;16915;51.466;3.610;2023-08-30T14:16:27;1.40;;;0.47;;
30096;SDS011;16915;51.466;3.610;2023-08-30T14:18:52;3.13;;;0.50;;
30096;SDS011;16915;51.466;3.610;2023-08-30T14:21:18;2.10;;;0.40;;
30096;SDS011;16915;51.466;3.610;2023-08-30T14:23:44;1.35;;;0.55;;
30096;SDS011;16915;51.466;3.610;2023-08-30T14:26:09;1.65;;;0.60;;
30096;SDS011;16915;51.466;3.610;2023-08-30T14:28:39;2.35;;;0.65;;
30096;SDS011;16915;51.466;3.610;2023-08-30T14:31:08;2.53;;;0.80;;
30096;SDS011;16915;51.466;3.610;2023-08-30T14:33:35;1.08;;;0.60;;
30096;SDS011;16915;51.466;3.610;2023-08-30T14:36:01;1.50;;;0.50;;
30096;SDS011;16915;51.466;3.610;2023-08-30T14:38:27;2.03;;;0.73;;
30096;SDS011;16915;51.466;3.610;2023-08-30T14:40:57;1.35;;;0.70;;
30096;SDS011;16915;51.466;3.610;2023-08-30T14:43:27;2.03;;;0.88;;
30096;SDS011;16915;51.466;3.610;2023-08-30T14:45:59;2.03;;;1.00;;
30096;SDS011;16915;51.466;3.610;2023-08-30T14:48:29;2.33;;;0.80;;
30096;SDS011;16915;51.466;3.610;2023-08-30T14:50:56;3.25;;;0.98;;
30096;SDS011;16915;51.466;3.610;2023-08-30T14:53:26;3.42;;;0.95;;
30096;SDS011;16915;51.466;3.610;2023-08-30T14:55:51;0.82;;;0.50;;
30096;SDS011;16915;51.466;3.610;2023-08-30T14:58:17;5.97;;;0.88;;